sensor_id;sensor_type;location;lat;lon;timestamp;pressure;altitude;pressure_sealevel;temperature;humidity
64711;BME280;51139;45.626;6.850;2023-04-05T07:55:02;81560.56;;;2.97;57.68
64711;BME280;51139;45.626;6.850;2023-04-05T07:57:28;81550.59;;;3.47;54.53
64711;BME280;51139;45.626;6.850;2023-04-05T07:59:53;81553.91;;;3.40;55.05
64711;BME280;51139;45.626;6.850;2023-04-05T08:02:20;81554.28;;;3.75;51.96
64711;BME280;51139;45.626;6.850;2023-04-05T08:04:45;81560.34;;;3.39;51.63
64711;BME280;51139;45.626;6.850;2023-04-05T08:07:11;81552.91;;;3.74;49.80
64711;BME280;51139;45.626;6.850;2023-04-05T08:09:36;81557.84;;;2.00;56.24
64711;BME280;51139;45.626;6.850;2023-04-05T08:12:02;81568.06;;;3.53;55.71
64711;BME280;51139;45.626;6.850;2023-04-05T08:14:28;81557.81;;;3.93;51.99
64711;BME280;51139;45.626;6.850;2023-04-05T08:16:53;81552.16;;;4.67;50.89
64711;BME280;51139;45.626;6.850;2023-04-05T08:19:19;81561.19;;;1.58;55.04
64711;BME280;51139;45.626;6.850;2023-04-05T08:21:44;81564.56;;;1.66;54.96
64711;BME280;51139;45.626;6.850;2023-04-05T08:24:10;81557.47;;;2.61;59.03
64711;BME280;51139;45.626;6.850;2023-04-05T08:26:35;81567.47;;;2.71;57.86
64711;BME280;51139;45.626;6.850;2023-04-05T08:29:01;81564.41;;;3.56;58.65
64711;BME280;51139;45.626;6.850;2023-04-05T08:31:26;81564.78;;;2.63;58.66
64711;BME280;51139;45.626;6.850;2023-04-05T08:33:52;81566.00;;;3.74;56.23
64711;BME280;51139;45.626;6.850;2023-04-05T08:36:18;81569.69;;;3.03;57.91
64711;BME280;51139;45.626;6.850;2023-04-05T08:38:43;81570.38;;;3.95;56.18
64711;BME280;51139;45.626;6.850;2023-04-05T08:41:22;81573.44;;;3.39;55.49
64711;BME280;51139;45.626;6.850;2023-04-05T08:43:54;81579.69;;;2.76;56.34
64711;BME280;51139;45.626;6.850;2023-04-05T08:46:23;81581.63;;;3.28;55.34
64711;BME280;51139;45.626;6.850;2023-04-05T08:48:49;81580.22;;;2.74;57.33
64711;BME280;51139;45.626;6.850;2023-04-05T08:51:19;81587.97;;;2.96;57.39
64711;BME280;51139;45.626;6.850;2023-04-05T08:53:46;81584.34;;;3.06;54.68
64711;BME280;51139;45.626;6.850;2023-04-05T08:56:14;81595.69;;;3.09;51.41
64711;BME280;51139;45.626;6.850;2023-04-05T08:58:40;81586.66;;;4.01;50.20
64711;BME280;51139;45.626;6.850;2023-04-05T09:01:10;81585.06;;;3.98;48.27
64711;BME280;51139;45.626;6.850;2023-04-05T09:03:36;81592.69;;;3.57;50.43
64711;BME280;51139;45.626;6.850;2023-04-05T09:06:06;81590.22;;;2.26;53.49
64711;BME280;51139;45.626;6.850;2023-04-05T09:08:33;81592.03;;;2.68;53.11
64711;BME280;51139;45.626;6.850;2023-04-05T09:10:59;81597.00;;;2.21;53.71
64711;BME280;51139;45.626;6.850;2023-04-05T09:13:24;81588.88;;;3.97;49.90
64711;BME280;51139;45.626;6.850;2023-04-05T09:15:50;81604.16;;;3.31;48.51
64711;BME280;51139;45.626;6.850;2023-04-05T09:18:16;81605.81;;;3.13;49.54
64711;BME280;51139;45.626;6.850;2023-04-05T09:20:41;81599.03;;;4.16;44.90
64711;BME280;51139;45.626;6.850;2023-04-05T09:23:07;81597.94;;;3.65;46.51
64711;BME280;51139;45.626;6.850;2023-04-05T09:25:35;81607.03;;;3.56;47.75
64711;BME280;51139;45.626;6.850;2023-04-05T09:28:03;81607.56;;;3.70;45.90
64711;BME280;51139;45.626;6.850;2023-04-05T09:30:29;81603.13;;;3.34;47.87
64711;BME280;51139;45.626;6.850;2023-04-05T09:32:55;81607.75;;;3.88;49.07
64711;BME280;51139;45.626;6.850;2023-04-05T09:35:25;81605.31;;;3.90;48.02
64711;BME280;51139;45.626;6.850;2023-04-05T09:37:54;81607.28;;;4.28;45.49
64711;BME280;51139;45.626;6.850;2023-04-05T09:40:21;81606.09;;;3.38;48.85
64711;BME280;51139;45.626;6.850;2023-04-05T09:42:47;81604.63;;;4.20;46.47
64711;BME280;51139;45.626;6.850;2023-04-05T09:45:13;81613.72;;;4.43;43.74
64711;BME280;51139;45.626;6.850;2023-04-05T09:47:39;81596.25;;;4.06;43.99
64711;BME280;51139;45.626;6.850;2023-04-05T09:52:41;81614.50;;;3.00;49.22
64711;BME280;51139;45.626;6.850;2023-04-05T09:55:07;81603.53;;;3.69;47.04
64711;BME280;51139;45.626;6.850;2023-04-05T09:57:35;81608.75;;;3.54;43.46
64711;BME280;51139;45.626;6.850;2023-04-05T10:00:02;81608.38;;;3.49;44.78
64711;BME280;51139;45.626;6.850;2023-04-05T10:02:37;81593.22;;;4.80;43.58
64711;BME280;51139;45.626;6.850;2023-04-05T10:05:10;81596.78;;;4.20;46.74
64711;BME280;51139;45.626;6.850;2023-04-05T10:07:38;81593.75;;;3.02;45.95
64711;BME280;51139;45.626;6.850;2023-04-05T10:10:04;81599.63;;;0.40;50.89
64711;BME280;51139;45.626;6.850;2023-04-05T10:12:31;81598.50;;;1.87;47.92
64711;BME280;51139;45.626;6.850;2023-04-05T10:14:57;81599.69;;;2.66;46.46
64711;BME280;51139;45.626;6.850;2023-04-05T10:17:50;81601.91;;;3.35;48.03
64711;BME280;51139;45.626;6.850;2023-04-05T10:20:23;81597.03;;;2.58;45.21
64711;BME280;51139;45.626;6.850;2023-04-05T10:23:07;81595.72;;;1.85;48.71
64711;BME280;51139;45.626;6.850;2023-04-05T10:28:29;81592.09;;;3.35;47.13
64711;BME280;51139;45.626;6.850;2023-04-05T10:33:39;81593.56;;;2.63;44.60
64711;BME280;51139;45.626;6.850;2023-04-05T10:36:38;81592.78;;;1.47;47.46
64711;BME280;51139;45.626;6.850;2023-04-05T10:39:11;81590.66;;;3.19;45.24
64711;BME280;51139;45.626;6.850;2023-04-05T10:41:41;81590.09;;;3.57;44.75
64711;BME280;51139;45.626;6.850;2023-04-05T10:44:09;81587.00;;;2.12;45.47
64711;BME280;51139;45.626;6.850;2023-04-05T10:46:36;81594.13;;;3.14;46.91
64711;BME280;51139;45.626;6.850;2023-04-05T10:51:50;81586.66;;;1.86;45.48
64711;BME280;51139;45.626;6.850;2023-04-05T10:54:18;81583.72;;;0.92;49.13
64711;BME280;51139;45.626;6.850;2023-04-05T10:56:45;81588.91;;;2.40;45.05
64711;BME280;51139;45.626;6.850;2023-04-05T10:59:11;81594.84;;;2.41;44.62
64711;BME280;51139;45.626;6.850;2023-04-05T11:01:38;81590.97;;;1.84;44.93
64711;BME280;51139;45.626;6.850;2023-04-05T11:04:12;81590.25;;;2.62;44.23
64711;BME280;51139;45.626;6.850;2023-04-05T11:06:38;81598.91;;;2.21;48.83
64711;BME280;51139;45.626;6.850;2023-04-05T11:09:11;81596.81;;;2.85;46.00
64711;BME280;51139;45.626;6.850;2023-04-05T11:11:41;81591.88;;;3.18;46.23
64711;BME280;51139;45.626;6.850;2023-04-05T11:16:50;81590.00;;;2.45;47.84
64711;BME280;51139;45.626;6.850;2023-04-05T11:22:13;81585.94;;;4.08;46.46
64711;BME280;51139;45.626;6.850;2023-04-05T11:24:53;81579.81;;;3.90;46.69
64711;BME280;51139;45.626;6.850;2023-04-05T11:27:38;81584.88;;;3.13;47.70
64711;BME280;51139;45.626;6.850;2023-04-05T11:30:06;81585.91;;;3.70;48.30
64711;BME280;51139;45.626;6.850;2023-04-05T11:32:42;81580.06;;;3.25;46.37
64711;BME280;51139;45.626;6.850;2023-04-05T11:35:17;81581.38;;;3.86;48.23
64711;BME280;51139;45.626;6.850;2023-04-05T11:38:05;81577.03;;;4.50;45.05
64711;BME280;51139;45.626;6.850;2023-04-05T11:40:34;81569.88;;;4.20;46.40
64711;BME280;51139;45.626;6.850;2023-04-05T11:45:31;81580.09;;;3.40;50.90
64711;BME280;51139;45.626;6.850;2023-04-05T11:47:59;81587.16;;;4.23;47.53
64711;BME280;51139;45.626;6.850;2023-04-05T11:50:27;81582.06;;;3.71;45.93
64711;BME280;51139;45.626;6.850;2023-04-05T11:53:13;81590.56;;;3.48;47.07
64711;BME280;51139;45.626;6.850;2023-04-05T11:55:40;81583.91;;;3.31;45.06
64711;BME280;51139;45.626;6.850;2023-04-05T11:58:19;81579.31;;;4.23;44.95
64711;BME280;51139;45.626;6.850;2023-04-05T12:03:24;81583.66;;;4.20;44.74
64711;BME280;51139;45.626;6.850;2023-04-05T12:05:52;81576.78;;;4.87;41.41
64711;BME280;51139;45.626;6.850;2023-04-05T12:08:19;81578.81;;;5.04;42.65
64711;BME280;51139;45.626;6.850;2023-04-05T12:10:55;81573.31;;;4.61;43.28
64711;BME280;51139;45.626;6.850;2023-04-05T12:13:28;81581.34;;;3.55;44.76
64711;BME280;51139;45.626;6.850;2023-04-05T12:15:57;81575.28;;;4.14;44.13
64711;BME280;51139;45.626;6.850;2023-04-05T12:18:24;81569.94;;;4.84;45.84
64711;BME280;51139;45.626;6.850;2023-04-05T12:20:52;81577.72;;;4.20;42.06
64711;BME280;51139;45.626;6.850;2023-04-05T12:23:18;81572.63;;;4.53;42.15
64711;BME280;51139;45.626;6.850;2023-04-05T12:25:49;81574.25;;;4.25;42.79
64711;BME280;51139;45.626;6.850;2023-04-05T12:28:15;81578.47;;;3.29;42.69
64711;BME280;51139;45.626;6.850;2023-04-05T12:30:51;81573.47;;;3.55;45.32
64711;BME280;51139;45.626;6.850;2023-04-05T12:33:33;81572.31;;;4.02;43.66
64711;BME280;51139;45.626;6.850;2023-04-05T12:36:04;81573.72;;;4.11;43.78
64711;BME280;51139;45.626;6.850;2023-04-05T12:38:30;81564.34;;;4.88;45.20
64711;BME280;51139;45.626;6.850;2023-04-05T12:41:00;81574.91;;;5.21;41.19
64711;BME280;51139;45.626;6.850;2023-04-05T12:43:39;81571.28;;;2.70;40.53
64711;BME280;51139;45.626;6.850;2023-04-05T12:46:10;81569.88;;;3.97;42.23
64711;BME280;51139;45.626;6.850;2023-04-05T12:48:36;81567.13;;;4.97;42.35
64711;BME280;51139;45.626;6.850;2023-04-05T12:51:03;81570.88;;;4.56;42.49
64711;BME280;51139;45.626;6.850;2023-04-05T12:53:29;81571.63;;;4.09;44.22
64711;BME280;51139;45.626;6.850;2023-04-05T12:55:56;81569.53;;;4.16;44.21
64711;BME280;51139;45.626;6.850;2023-04-05T12:58:33;81556.75;;;4.35;46.13
64711;BME280;51139;45.626;6.850;2023-04-05T13:00:59;81560.19;;;4.61;44.49
64711;BME280;51139;45.626;6.850;2023-04-05T13:03:26;81566.13;;;4.77;45.16
64711;BME280;51139;45.626;6.850;2023-04-05T13:05:51;81551.13;;;4.47;42.30
64711;BME280;51139;45.626;6.850;2023-04-05T13:08:17;81553.59;;;3.67;45.52
64711;BME280;51139;45.626;6.850;2023-04-05T13:10:44;81559.81;;;4.73;44.38
64711;BME280;51139;45.626;6.850;2023-04-05T13:13:10;81555.63;;;4.70;41.25
64711;BME280;51139;45.626;6.850;2023-04-05T13:15:36;81561.59;;;4.62;44.23
64711;BME280;51139;45.626;6.850;2023-04-05T13:18:01;81557.25;;;5.14;42.73
64711;BME280;51139;45.626;6.850;2023-04-05T13:20:27;81549.91;;;4.48;45.34
64711;BME280;51139;45.626;6.850;2023-04-05T13:22:52;81548.88;;;4.35;43.91
64711;BME280;51139;45.626;6.850;2023-04-05T13:25:17;81548.19;;;4.27;46.24
64711;BME280;51139;45.626;6.850;2023-04-05T13:27:43;81548.03;;;4.09;44.08
64711;BME280;51139;45.626;6.850;2023-04-05T13:30:09;81554.63;;;3.48;43.37
64711;BME280;51139;45.626;6.850;2023-04-05T13:32:35;81550.13;;;3.80;42.82
64711;BME280;51139;45.626;6.850;2023-04-05T13:35:00;81553.72;;;3.38;41.91
64711;BME280;51139;45.626;6.850;2023-04-05T13:37:26;81549.94;;;3.62;40.09
64711;BME280;51139;45.626;6.850;2023-04-05T13:39:51;81555.34;;;3.64;43.78
64711;BME280;51139;45.626;6.850;2023-04-05T13:42:16;81555.72;;;3.84;42.09
64711;BME280;51139;45.626;6.850;2023-04-05T13:44:42;81557.28;;;3.95;43.43
64711;BME280;51139;45.626;6.850;2023-04-05T13:47:08;81548.72;;;4.33;43.31
64711;BME280;51139;45.626;6.850;2023-04-05T13:49:33;81548.72;;;4.18;42.56
64711;BME280;51139;45.626;6.850;2023-04-05T13:51:59;81545.22;;;4.23;43.66
64711;BME280;51139;45.626;6.850;2023-04-05T13:54:24;81543.44;;;4.49;41.48
64711;BME280;51139;45.626;6.850;2023-04-05T13:56:50;81539.28;;;3.60;45.00
64711;BME280;51139;45.626;6.850;2023-04-05T13:59:15;81533.84;;;3.97;44.13
64711;BME280;51139;45.626;6.850;2023-04-05T14:01:45;81531.25;;;3.74;43.15
64711;BME280;51139;45.626;6.850;2023-04-05T14:04:10;81528.91;;;3.24;44.34
64711;BME280;51139;45.626;6.850;2023-04-05T14:06:36;81546.81;;;4.03;44.84
64711;BME280;51139;45.626;6.850;2023-04-05T14:09:02;81531.75;;;4.34;45.28
64711;BME280;51139;45.626;6.850;2023-04-05T14:11:28;81523.91;;;4.11;43.47
64711;BME280;51139;45.626;6.850;2023-04-05T14:13:53;81540.69;;;4.00;43.58
64711;BME280;51139;45.626;6.850;2023-04-05T14:16:19;81535.78;;;4.20;44.78
64711;BME280;51139;45.626;6.850;2023-04-05T14:18:45;81544.88;;;4.19;44.08
64711;BME280;51139;45.626;6.850;2023-04-05T14:21:10;81542.78;;;4.17;45.84
64711;BME280;51139;45.626;6.850;2023-04-05T14:23:36;81543.41;;;4.64;40.79
64711;BME280;51139;45.626;6.850;2023-04-05T14:26:01;81545.88;;;5.19;42.20
64711;BME280;51139;45.626;6.850;2023-04-05T14:28:27;81546.16;;;4.82;41.78
64711;BME280;51139;45.626;6.850;2023-04-05T14:30:52;81547.38;;;4.89;41.59
64711;BME280;51139;45.626;6.850;2023-04-05T14:33:18;81543.81;;;4.37;42.05
64711;BME280;51139;45.626;6.850;2023-04-05T14:35:43;81543.41;;;4.64;44.12
64711;BME280;51139;45.626;6.850;2023-04-05T14:38:09;81552.00;;;5.14;41.96
64711;BME280;51139;45.626;6.850;2023-04-05T14:40:35;81542.56;;;5.18;41.28
64711;BME280;51139;45.626;6.850;2023-04-05T14:43:01;81556.34;;;4.70;42.39
64711;BME280;51139;45.626;6.850;2023-04-05T14:45:26;81539.47;;;4.17;41.74
64711;BME280;51139;45.626;6.850;2023-04-05T14:47:52;81543.78;;;4.61;41.52
64711;BME280;51139;45.626;6.850;2023-04-05T14:50:18;81547.66;;;4.29;41.31
64711;BME280;51139;45.626;6.850;2023-04-05T14:52:44;81543.31;;;4.16;42.44
64711;BME280;51139;45.626;6.850;2023-04-05T14:55:10;81543.22;;;4.70;43.41
64711;BME280;51139;45.626;6.850;2023-04-05T14:57:38;81542.59;;;4.00;41.85
64711;BME280;51139;45.626;6.850;2023-04-05T15:00:04;81538.53;;;4.53;42.67
64711;BME280;51139;45.626;6.850;2023-04-05T15:02:30;81546.53;;;4.78;43.79
64711;BME280;51139;45.626;6.850;2023-04-05T15:04:56;81541.66;;;4.67;42.62
64711;BME280;51139;45.626;6.850;2023-04-05T15:07:25;81538.28;;;4.90;43.19
64711;BME280;51139;45.626;6.850;2023-04-05T15:09:50;81538.78;;;4.08;43.20
64711;BME280;51139;45.626;6.850;2023-04-05T15:12:16;81537.69;;;3.96;43.53
64711;BME280;51139;45.626;6.850;2023-04-05T15:14:41;81545.00;;;4.60;44.44
64711;BME280;51139;45.626;6.850;2023-04-05T15:17:09;81543.94;;;3.31;42.93
64711;BME280;51139;45.626;6.850;2023-04-05T15:19:35;81548.50;;;4.47;44.45
64711;BME280;51139;45.626;6.850;2023-04-05T15:22:01;81549.03;;;4.61;42.78
64711;BME280;51139;45.626;6.850;2023-04-05T15:24:26;81555.34;;;4.27;43.57
64711;BME280;51139;45.626;6.850;2023-04-05T15:26:52;81549.03;;;3.52;44.84
64711;BME280;51139;45.626;6.850;2023-04-05T15:29:18;81558.81;;;3.52;46.66
64711;BME280;51139;45.626;6.850;2023-04-05T15:31:43;81549.28;;;3.10;46.16
64711;BME280;51139;45.626;6.850;2023-04-05T15:34:08;81554.63;;;2.88;46.75
64711;BME280;51139;45.626;6.850;2023-04-05T15:36:34;81556.97;;;3.08;47.08
64711;BME280;51139;45.626;6.850;2023-04-05T15:39:00;81558.31;;;3.61;46.32
64711;BME280;51139;45.626;6.850;2023-04-05T15:41:25;81551.53;;;3.97;46.62
64711;BME280;51139;45.626;6.850;2023-04-05T15:43:52;81561.09;;;3.63;47.73
64711;BME280;51139;45.626;6.850;2023-04-05T15:46:18;81552.38;;;3.76;48.38
64711;BME280;51139;45.626;6.850;2023-04-05T15:48:43;81560.38;;;3.55;46.10
64711;BME280;51139;45.626;6.850;2023-04-05T15:51:08;81553.19;;;3.32;46.94
64711;BME280;51139;45.626;6.850;2023-04-05T15:53:36;81566.00;;;2.25;47.83
64711;BME280;51139;45.626;6.850;2023-04-05T15:56:01;81559.34;;;1.66;53.27
64711;BME280;51139;45.626;6.850;2023-04-05T15:58:27;81567.31;;;2.11;50.13
64711;BME280;51139;45.626;6.850;2023-04-05T16:00:52;81567.78;;;2.30;51.34
64711;BME280;51139;45.626;6.850;2023-04-05T16:03:17;81561.19;;;1.79;54.57
64711;BME280;51139;45.626;6.850;2023-04-05T16:05:43;81566.03;;;2.33;52.88
64711;BME280;51139;45.626;6.850;2023-04-05T16:08:08;81558.56;;;2.37;51.39
64711;BME280;51139;45.626;6.850;2023-04-05T16:10:34;81568.59;;;1.96;54.61
64711;BME280;51139;45.626;6.850;2023-04-05T16:12:59;81571.06;;;2.60;51.34
64711;BME280;51139;45.626;6.850;2023-04-05T16:15:25;81571.09;;;1.17;54.04
64711;BME280;51139;45.626;6.850;2023-04-05T16:17:52;81578.38;;;0.36;54.80
64711;BME280;51139;45.626;6.850;2023-04-05T16:20:17;81570.16;;;0.58;54.52
64711;BME280;51139;45.626;6.850;2023-04-05T16:22:43;81571.53;;;1.29;51.43
64711;BME280;51139;45.626;6.850;2023-04-05T16:25:09;81562.13;;;1.26;51.91
64711;BME280;51139;45.626;6.850;2023-04-05T16:27:35;81586.91;;;1.54;50.46
64711;BME280;51139;45.626;6.850;2023-04-05T16:30:01;81587.72;;;1.91;50.35
64711;BME280;51139;45.626;6.850;2023-04-05T16:32:30;81574.38;;;1.73;50.74
64711;BME280;51139;45.626;6.850;2023-04-05T16:34:55;81577.44;;;1.64;49.90
64711;BME280;51139;45.626;6.850;2023-04-05T16:37:20;81574.47;;;2.18;49.51
64711;BME280;51139;45.626;6.850;2023-04-05T16:39:46;81587.06;;;1.98;49.55
64711;BME280;51139;45.626;6.850;2023-04-05T16:42:11;81589.00;;;2.27;48.48
64711;BME280;51139;45.626;6.850;2023-04-05T16:44:37;81583.47;;;1.59;50.69
64711;BME280;51139;45.626;6.850;2023-04-05T16:47:02;81594.81;;;1.83;48.65
64711;BME280;51139;45.626;6.850;2023-04-05T16:49:28;81601.03;;;2.01;48.70
64711;BME280;51139;45.626;6.850;2023-04-05T16:51:53;81604.03;;;1.84;49.25
64711;BME280;51139;45.626;6.850;2023-04-05T16:54:19;81604.69;;;2.27;48.25
64711;BME280;51139;45.626;6.850;2023-04-05T16:56:45;81601.94;;;2.32;48.16
64711;BME280;51139;45.626;6.850;2023-04-05T16:59:10;81596.84;;;2.56;47.40
64711;BME280;51139;45.626;6.850;2023-04-05T17:01:36;81599.38;;;2.40;46.02
64711;BME280;51139;45.626;6.850;2023-04-05T17:04:02;81603.16;;;2.60;46.97
64711;BME280;51139;45.626;6.850;2023-04-05T17:06:28;81600.59;;;1.68;47.66
64711;BME280;51139;45.626;6.850;2023-04-05T17:08:53;81612.75;;;1.09;49.34
64711;BME280;51139;45.626;6.850;2023-04-05T17:11:19;81615.06;;;2.40;47.26
64711;BME280;51139;45.626;6.850;2023-04-05T17:13:44;81613.06;;;2.54;46.07
64711;BME280;51139;45.626;6.850;2023-04-05T17:16:11;81611.47;;;2.51;46.56
64711;BME280;51139;45.626;6.850;2023-04-05T17:18:37;81614.47;;;2.63;45.01
64711;BME280;51139;45.626;6.850;2023-04-05T17:21:03;81614.66;;;2.07;43.55
64711;BME280;51139;45.626;6.850;2023-04-05T17:23:28;81622.50;;;2.28;44.82
64711;BME280;51139;45.626;6.850;2023-04-05T17:25:54;81623.00;;;2.56;44.73
64711;BME280;51139;45.626;6.850;2023-04-05T17:28:20;81619.34;;;2.59;43.17
64711;BME280;51139;45.626;6.850;2023-04-05T17:30:45;81620.84;;;1.96;44.98
64711;BME280;51139;45.626;6.850;2023-04-05T17:33:11;81629.00;;;2.14;44.53
64711;BME280;51139;45.626;6.850;2023-04-05T17:35:36;81622.22;;;2.40;44.09
64711;BME280;51139;45.626;6.850;2023-04-05T17:38:02;81628.28;;;1.71;44.61
64711;BME280;51139;45.626;6.850;2023-04-05T17:40:28;81631.25;;;2.68;43.47
64711;BME280;51139;45.626;6.850;2023-04-05T17:42:54;81628.75;;;2.54;43.32
64711;BME280;51139;45.626;6.850;2023-04-05T17:45:19;81633.88;;;2.39;44.10
64711;BME280;51139;45.626;6.850;2023-04-05T17:47:45;81631.75;;;2.37;43.30
64711;BME280;51139;45.626;6.850;2023-04-05T17:50:10;81637.53;;;2.36;43.14
64711;BME280;51139;45.626;6.850;2023-04-05T17:52:36;81637.50;;;2.94;42.48
64711;BME280;51139;45.626;6.850;2023-04-05T17:55:01;81640.31;;;2.67;41.89
64711;BME280;51139;45.626;6.850;2023-04-05T17:57:27;81637.69;;;2.67;40.72
64711;BME280;51139;45.626;6.850;2023-04-05T17:59:52;81638.16;;;2.86;41.33
64711;BME280;51139;45.626;6.850;2023-04-05T18:02:18;81640.97;;;2.59;41.17
64711;BME280;51139;45.626;6.850;2023-04-05T18:04:43;81647.69;;;2.47;41.64
64711;BME280;51139;45.626;6.850;2023-04-05T18:07:09;81643.13;;;2.69;41.47
64711;BME280;51139;45.626;6.850;2023-04-05T18:09:34;81642.28;;;2.45;41.75
64711;BME280;51139;45.626;6.850;2023-04-05T18:12:02;81648.38;;;2.47;41.59
64711;BME280;51139;45.626;6.850;2023-04-05T18:14:27;81648.47;;;2.63;41.44
64711;BME280;51139;45.626;6.850;2023-04-05T18:16:54;81646.25;;;3.04;41.70
64711;BME280;51139;45.626;6.850;2023-04-05T18:19:19;81647.13;;;2.70;41.90
64711;BME280;51139;45.626;6.850;2023-04-05T18:21:45;81647.94;;;2.86;40.90
64711;BME280;51139;45.626;6.850;2023-04-05T18:24:12;81657.50;;;2.54;41.21
64711;BME280;51139;45.626;6.850;2023-04-05T18:26:38;81659.72;;;2.71;42.08
64711;BME280;51139;45.626;6.850;2023-04-05T18:29:03;81662.59;;;2.89;42.30
64711;BME280;51139;45.626;6.850;2023-04-05T18:31:29;81655.66;;;2.99;41.45
64711;BME280;51139;45.626;6.850;2023-04-05T18:33:56;81660.34;;;3.30;40.44
64711;BME280;51139;45.626;6.850;2023-04-05T18:36:22;81656.88;;;3.35;40.88
64711;BME280;51139;45.626;6.850;2023-04-05T18:38:56;81665.28;;;3.04;41.85
64711;BME280;51139;45.626;6.850;2023-04-05T18:41:22;81672.59;;;3.06;42.80
64711;BME280;51139;45.626;6.850;2023-04-05T18:43:52;81672.81;;;2.50;42.23
64711;BME280;51139;45.626;6.850;2023-04-05T18:46:20;81671.81;;;2.32;42.54
64711;BME280;51139;45.626;6.850;2023-04-05T18:48:45;81676.38;;;2.60;42.21
64711;BME280;51139;45.626;6.850;2023-04-05T18:51:11;81681.41;;;2.58;42.71
64711;BME280;51139;45.626;6.850;2023-04-05T18:53:36;81684.28;;;2.68;42.15
64711;BME280;51139;45.626;6.850;2023-04-05T18:56:02;81676.19;;;2.37;43.14
64711;BME280;51139;45.626;6.850;2023-04-05T18:58:27;81683.84;;;2.35;42.17
64711;BME280;51139;45.626;6.850;2023-04-05T19:00:53;81688.75;;;1.75;44.40
64711;BME280;51139;45.626;6.850;2023-04-05T19:03:18;81689.22;;;1.87;44.68
64711;BME280;51139;45.626;6.850;2023-04-05T19:05:48;81691.47;;;2.04;43.20
64711;BME280;51139;45.626;6.850;2023-04-05T19:08:15;81688.25;;;2.19;42.58
64711;BME280;51139;45.626;6.850;2023-04-05T19:10:41;81684.44;;;1.78;44.23
64711;BME280;51139;45.626;6.850;2023-04-05T19:13:06;81699.84;;;1.89;44.37
64711;BME280;51139;45.626;6.850;2023-04-05T19:15:32;81694.50;;;2.16;41.70
64711;BME280;51139;45.626;6.850;2023-04-05T19:17:57;81697.22;;;1.68;41.91
64711;BME280;51139;45.626;6.850;2023-04-05T19:20:24;81706.06;;;2.21;41.30
64711;BME280;51139;45.626;6.850;2023-04-05T19:22:50;81705.69;;;2.38;40.86
64711;BME280;51139;45.626;6.850;2023-04-05T19:25:15;81703.72;;;2.59;39.76
64711;BME280;51139;45.626;6.850;2023-04-05T19:27:41;81702.50;;;1.75;40.90
64711;BME280;51139;45.626;6.850;2023-04-05T19:30:07;81708.91;;;1.53;41.18
64711;BME280;51139;45.626;6.850;2023-04-05T19:32:32;81705.19;;;1.14;40.96
64711;BME280;51139;45.626;6.850;2023-04-05T19:34:58;81711.66;;;0.13;42.57
64711;BME280;51139;45.626;6.850;2023-04-05T19:37:23;81714.50;;;-0.04;42.34
64711;BME280;51139;45.626;6.850;2023-04-05T19:39:49;81718.44;;;1.02;42.25
64711;BME280;51139;45.626;6.850;2023-04-05T19:42:15;81717.19;;;1.30;41.74
64711;BME280;51139;45.626;6.850;2023-04-05T19:44:49;81716.25;;;1.55;41.51
64711;BME280;51139;45.626;6.850;2023-04-05T19:47:17;81718.50;;;1.37;42.00
64711;BME280;51139;45.626;6.850;2023-04-05T19:49:43;81725.56;;;0.89;41.79
64711;BME280;51139;45.626;6.850;2023-04-05T19:52:11;81720.81;;;1.27;41.76
64711;BME280;51139;45.626;6.850;2023-04-05T19:54:38;81725.63;;;1.71;40.86
64711;BME280;51139;45.626;6.850;2023-04-05T19:57:05;81738.59;;;1.02;41.06
64711;BME280;51139;45.626;6.850;2023-04-05T19:59:32;81741.19;;;1.02;40.75
64711;BME280;51139;45.626;6.850;2023-04-05T20:01:59;81734.47;;;0.80;42.12
64711;BME280;51139;45.626;6.850;2023-04-05T20:04:26;81743.88;;;1.37;42.86
64711;BME280;51139;45.626;6.850;2023-04-05T20:06:52;81747.31;;;1.05;43.30
64711;BME280;51139;45.626;6.850;2023-04-05T20:09:28;81740.72;;;1.65;41.87
64711;BME280;51139;45.626;6.850;2023-04-05T20:12:02;81737.53;;;1.94;41.94
64711;BME280;51139;45.626;6.850;2023-04-05T20:14:41;81735.50;;;2.00;41.21
64711;BME280;51139;45.626;6.850;2023-04-05T20:17:07;81746.94;;;1.62;42.62
64711;BME280;51139;45.626;6.850;2023-04-05T20:19:32;81738.97;;;1.06;43.22
64711;BME280;51139;45.626;6.850;2023-04-05T20:22:05;81740.88;;;1.81;42.32
64711;BME280;51139;45.626;6.850;2023-04-05T20:24:30;81738.75;;;1.44;43.08
64711;BME280;51139;45.626;6.850;2023-04-05T20:26:56;81745.66;;;1.42;43.98
64711;BME280;51139;45.626;6.850;2023-04-05T20:29:24;81755.25;;;2.09;42.66
64711;BME280;51139;45.626;6.850;2023-04-05T20:31:51;81742.34;;;1.89;42.86
64711;BME280;51139;45.626;6.850;2023-04-05T20:36:48;81743.81;;;0.75;43.62
64711;BME280;51139;45.626;6.850;2023-04-05T20:39:14;81749.22;;;0.77;45.18
64711;BME280;51139;45.626;6.850;2023-04-05T20:41:40;81752.53;;;1.05;44.30
64711;BME280;51139;45.626;6.850;2023-04-05T20:44:06;81740.00;;;0.76;44.60
64711;BME280;51139;45.626;6.850;2023-04-05T20:46:31;81743.91;;;0.10;44.30
64711;BME280;51139;45.626;6.850;2023-04-05T20:48:57;81753.28;;;-0.01;45.47
64711;BME280;51139;45.626;6.850;2023-04-05T20:51:23;81752.44;;;0.10;46.25
64711;BME280;51139;45.626;6.850;2023-04-05T20:53:48;81755.88;;;0.32;45.47
64711;BME280;51139;45.626;6.850;2023-04-05T20:56:14;81759.00;;;0.44;46.00
64711;BME280;51139;45.626;6.850;2023-04-05T20:58:40;81758.75;;;1.01;45.50
64711;BME280;51139;45.626;6.850;2023-04-05T21:01:06;81750.81;;;0.94;46.01
64711;BME280;51139;45.626;6.850;2023-04-05T21:03:35;81753.53;;;1.01;45.92
64711;BME280;51139;45.626;6.850;2023-04-05T21:06:02;81749.72;;;1.02;45.41
64711;BME280;51139;45.626;6.850;2023-04-05T21:08:30;81754.50;;;0.58;46.63
64711;BME280;51139;45.626;6.850;2023-04-05T21:10:56;81755.13;;;0.64;45.72
64711;BME280;51139;45.626;6.850;2023-04-05T21:13:22;81756.78;;;0.35;47.37
64711;BME280;51139;45.626;6.850;2023-04-05T21:15:50;81758.56;;;-0.39;48.21
64711;BME280;51139;45.626;6.850;2023-04-05T21:18:16;81758.78;;;-0.56;49.79
64711;BME280;51139;45.626;6.850;2023-04-05T21:20:42;81775.16;;;-0.61;50.54
64711;BME280;51139;45.626;6.850;2023-04-05T21:23:15;81764.03;;;-0.62;50.80
64711;BME280;51139;45.626;6.850;2023-04-05T21:25:40;81762.16;;;-0.42;50.04
64711;BME280;51139;45.626;6.850;2023-04-05T21:28:06;81759.53;;;0.56;48.39